sensor_id;sensor_type;location;lat;lon;timestamp;pressure;altitude;pressure_sealevel;temperature;humidity
10261;BME280;5175;42.606;23.388;2023-02-23T00:00:21;93609.13;;;6.14;79.75
10261;BME280;5175;42.606;23.388;2023-02-23T00:02:52;93610.66;;;6.05;80.31
10261;BME280;5175;42.606;23.388;2023-02-23T00:05:20;93611.50;;;5.79;82.65
10261;BME280;5175;42.606;23.388;2023-02-23T00:07:49;93610.34;;;5.70;84.35
10261;BME280;5175;42.606;23.388;2023-02-23T00:10:16;93591.09;;;5.75;84.54
10261;BME280;5175;42.606;23.388;2023-02-23T00:12:48;93608.19;;;5.62;85.27
10261;BME280;5175;42.606;23.388;2023-02-23T00:15:15;93607.44;;;5.40;86.88
10261;BME280;5175;42.606;23.388;2023-02-23T00:17:42;93601.34;;;5.39;86.89
10261;BME280;5175;42.606;23.388;2023-02-23T00:20:12;93606.75;;;5.23;88.56
10261;BME280;5175;42.606;23.388;2023-02-23T00:22:41;93609.91;;;5.20;88.61
10261;BME280;5175;42.606;23.388;2023-02-23T00:25:10;93612.31;;;5.21;88.28
10261;BME280;5175;42.606;23.388;2023-02-23T00:27:37;93606.97;;;5.16;88.28
10261;BME280;5175;42.606;23.388;2023-02-23T00:30:10;93605.25;;;5.05;88.20
10261;BME280;5175;42.606;23.388;2023-02-23T00:32:37;93631.16;;;5.03;87.29
10261;BME280;5175;42.606;23.388;2023-02-23T00:35:05;93611.78;;;4.97;87.66
10261;BME280;5175;42.606;23.388;2023-02-23T00:37:36;93606.38;;;4.87;89.97
10261;BME280;5175;42.606;23.388;2023-02-23T00:40:04;93616.84;;;4.77;90.71
10261;BME280;5175;42.606;23.388;2023-02-23T00:42:40;93611.97;;;4.91;90.04
10261;BME280;5175;42.606;23.388;2023-02-23T00:45:08;93613.06;;;4.95;89.43
10261;BME280;5175;42.606;23.388;2023-02-23T00:47:35;93608.34;;;4.75;90.67
10261;BME280;5175;42.606;23.388;2023-02-23T00:50:03;93609.25;;;4.86;91.11
10261;BME280;5175;42.606;23.388;2023-02-23T00:52:30;93607.84;;;4.78;92.02
10261;BME280;5175;42.606;23.388;2023-02-23T00:54:57;93605.03;;;4.63;91.93
10261;BME280;5175;42.606;23.388;2023-02-23T00:57:24;93606.53;;;4.54;94.11
10261;BME280;5175;42.606;23.388;2023-02-23T00:59:52;93590.03;;;4.47;94.03
10261;BME280;5175;42.606;23.388;2023-02-23T01:02:18;93599.38;;;4.33;95.61
10261;BME280;5175;42.606;23.388;2023-02-23T01:04:45;93610.56;;;4.40;95.69
10261;BME280;5175;42.606;23.388;2023-02-23T01:07:12;93604.19;;;4.36;95.19
10261;BME280;5175;42.606;23.388;2023-02-23T01:09:39;93601.75;;;4.34;95.72
10261;BME280;5175;42.606;23.388;2023-02-23T01:12:06;93602.94;;;4.43;95.02
10261;BME280;5175;42.606;23.388;2023-02-23T01:14:33;93605.03;;;4.41;95.52
10261;BME280;5175;42.606;23.388;2023-02-23T01:17:03;93602.22;;;4.48;94.38
10261;BME280;5175;42.606;23.388;2023-02-23T01:19:30;93604.44;;;4.56;94.01
10261;BME280;5175;42.606;23.388;2023-02-23T01:21:58;93600.53;;;4.42;95.15
10261;BME280;5175;42.606;23.388;2023-02-23T01:24:26;93608.78;;;4.46;95.10
10261;BME280;5175;42.606;23.388;2023-02-23T01:26:55;93602.53;;;4.52;95.34
10261;BME280;5175;42.606;23.388;2023-02-23T01:29:22;93594.97;;;4.38;95.96
10261;BME280;5175;42.606;23.388;2023-02-23T01:31:48;93602.75;;;4.28;97.72
10261;BME280;5175;42.606;23.388;2023-02-23T01:34:18;93607.09;;;4.01;99.47
10261;BME280;5175;42.606;23.388;2023-02-23T01:36:46;93544.91;;;3.89;99.07
10261;BME280;5175;42.606;23.388;2023-02-23T01:39:14;93556.28;;;3.89;98.37
10261;BME280;5175;42.606;23.388;2023-02-23T01:41:42;93595.94;;;4.32;98.34
10261;BME280;5175;42.606;23.388;2023-02-23T01:47:09;93580.97;;;4.00;100.00
10261;BME280;5175;42.606;23.388;2023-02-23T01:49:37;93593.09;;;4.17;99.76
10261;BME280;5175;42.606;23.388;2023-02-23T01:52:07;93590.25;;;4.24;99.21
10261;BME280;5175;42.606;23.388;2023-02-23T01:54:38;93588.44;;;4.24;99.24
10261;BME280;5175;42.606;23.388;2023-02-23T01:57:06;93592.56;;;3.99;100.00
10261;BME280;5175;42.606;23.388;2023-02-23T01:59:38;93587.88;;;4.22;100.00
10261;BME280;5175;42.606;23.388;2023-02-23T02:02:06;93592.00;;;4.13;100.00
10261;BME280;5175;42.606;23.388;2023-02-23T02:04:35;93595.25;;;4.20;100.00
10261;BME280;5175;42.606;23.388;2023-02-23T02:07:11;93585.34;;;4.11;100.00
10261;BME280;5175;42.606;23.388;2023-02-23T02:09:42;93581.50;;;4.18;100.00
10261;BME280;5175;42.606;23.388;2023-02-23T02:12:29;93587.41;;;4.09;100.00
10261;BME280;5175;42.606;23.388;2023-02-23T02:14:57;93558.59;;;3.86;100.00
10261;BME280;5175;42.606;23.388;2023-02-23T02:17:31;93579.28;;;3.94;100.00
10261;BME280;5175;42.606;23.388;2023-02-23T02:20:34;93582.91;;;3.71;100.00
10261;BME280;5175;42.606;23.388;2023-02-23T02:26:23;93591.09;;;3.69;100.00
10261;BME280;5175;42.606;23.388;2023-02-23T02:35:21;93580.34;;;3.93;100.00
10261;BME280;5175;42.606;23.388;2023-02-23T02:38:11;93583.22;;;3.91;100.00
10261;BME280;5175;42.606;23.388;2023-02-23T02:40:47;93529.00;;;3.45;100.00
10261;BME280;5175;42.606;23.388;2023-02-23T02:43:27;93578.31;;;3.61;100.00
10261;BME280;5175;42.606;23.388;2023-02-23T02:46:01;93569.47;;;3.72;100.00
10261;BME280;5175;42.606;23.388;2023-02-23T02:48:36;93574.13;;;3.65;100.00
10261;BME280;5175;42.606;23.388;2023-02-23T02:51:09;93548.47;;;3.44;100.00
10261;BME280;5175;42.606;23.388;2023-02-23T02:53:47;93578.44;;;3.71;100.00
10261;BME280;5175;42.606;23.388;2023-02-23T02:56:22;93576.75;;;3.65;100.00
10261;BME280;5175;42.606;23.388;2023-02-23T02:58:51;93561.56;;;3.72;100.00
10261;BME280;5175;42.606;23.388;2023-02-23T03:01:19;93573.94;;;3.89;100.00
10261;BME280;5175;42.606;23.388;2023-02-23T03:04:18;93571.00;;;3.85;100.00
10261;BME280;5175;42.606;23.388;2023-02-23T03:07:06;93570.75;;;3.70;100.00
10261;BME280;5175;42.606;23.388;2023-02-23T03:09:59;93570.69;;;3.82;100.00
10261;BME280;5175;42.606;23.388;2023-02-23T03:13:05;93558.38;;;3.37;100.00
10261;BME280;5175;42.606;23.388;2023-02-23T03:15:59;93575.41;;;3.63;100.00
10261;BME280;5175;42.606;23.388;2023-02-23T03:18:55;93561.03;;;3.37;100.00
10261;BME280;5175;42.606;23.388;2023-02-23T03:21:48;93590.03;;;3.21;100.00
10261;BME280;5175;42.606;23.388;2023-02-23T03:24:38;93575.09;;;3.26;100.00
10261;BME280;5175;42.606;23.388;2023-02-23T03:27:31;93577.50;;;3.28;100.00
10261;BME280;5175;42.606;23.388;2023-02-23T03:30:25;93572.78;;;3.30;100.00
10261;BME280;5175;42.606;23.388;2023-02-23T03:33:16;93556.72;;;3.14;100.00
10261;BME280;5175;42.606;23.388;2023-02-23T03:36:05;93578.75;;;3.25;100.00
10261;BME280;5175;42.606;23.388;2023-02-23T03:38:56;93570.63;;;3.43;100.00
10261;BME280;5175;42.606;23.388;2023-02-23T03:41:45;93576.63;;;3.39;100.00
10261;BME280;5175;42.606;23.388;2023-02-23T03:44:38;93577.06;;;3.19;100.00
10261;BME280;5175;42.606;23.388;2023-02-23T03:47:27;93560.50;;;2.90;100.00
10261;BME280;5175;42.606;23.388;2023-02-23T03:50:19;93578.91;;;3.02;100.00
10261;BME280;5175;42.606;23.388;2023-02-23T03:53:06;93582.00;;;2.99;100.00
10261;BME280;5175;42.606;23.388;2023-02-23T03:55:55;93589.72;;;2.89;100.00
10261;BME280;5175;42.606;23.388;2023-02-23T03:58:44;93592.91;;;2.91;100.00
10261;BME280;5175;42.606;23.388;2023-02-23T04:01:31;93589.28;;;2.80;100.00
10261;BME280;5175;42.606;23.388;2023-02-23T04:04:17;93588.91;;;2.88;100.00
10261;BME280;5175;42.606;23.388;2023-02-23T04:07:03;93582.53;;;2.84;100.00
10261;BME280;5175;42.606;23.388;2023-02-23T04:09:49;93514.28;;;2.54;100.00
10261;BME280;5175;42.606;23.388;2023-02-23T04:12:37;93592.34;;;2.89;100.00
10261;BME280;5175;42.606;23.388;2023-02-23T04:15:26;93603.41;;;3.02;100.00
10261;BME280;5175;42.606;23.388;2023-02-23T04:17:55;93596.50;;;2.85;100.00
10261;BME280;5175;42.606;23.388;2023-02-23T04:20:23;93599.59;;;2.82;100.00
10261;BME280;5175;42.606;23.388;2023-02-23T04:22:50;93583.66;;;2.88;100.00
10261;BME280;5175;42.606;23.388;2023-02-23T04:25:17;93583.03;;;2.98;100.00
10261;BME280;5175;42.606;23.388;2023-02-23T04:27:47;93596.78;;;3.16;100.00
10261;BME280;5175;42.606;23.388;2023-02-23T04:30:14;93591.09;;;2.91;100.00
10261;BME280;5175;42.606;23.388;2023-02-23T04:32:40;93533.47;;;2.67;100.00
10261;BME280;5175;42.606;23.388;2023-02-23T04:35:11;93596.66;;;3.23;100.00
10261;BME280;5175;42.606;23.388;2023-02-23T04:37:37;93523.16;;;2.65;100.00
10261;BME280;5175;42.606;23.388;2023-02-23T04:40:05;93601.19;;;3.11;100.00
10261;BME280;5175;42.606;23.388;2023-02-23T04:42:32;93594.97;;;3.17;100.00
10261;BME280;5175;42.606;23.388;2023-02-23T04:44:59;93600.78;;;3.19;100.00
10261;BME280;5175;42.606;23.388;2023-02-23T04:47:26;93594.06;;;2.67;100.00
10261;BME280;5175;42.606;23.388;2023-02-23T04:49:53;93584.81;;;2.81;100.00
10261;BME280;5175;42.606;23.388;2023-02-23T04:52:21;93591.53;;;2.88;100.00
10261;BME280;5175;42.606;23.388;2023-02-23T04:54:49;93592.72;;;2.81;100.00
10261;BME280;5175;42.606;23.388;2023-02-23T04:57:15;93598.81;;;2.98;100.00
10261;BME280;5175;42.606;23.388;2023-02-23T04:59:42;93594.94;;;3.00;100.00
10261;BME280;5175;42.606;23.388;2023-02-23T05:02:09;93587.78;;;2.56;100.00
10261;BME280;5175;42.606;23.388;2023-02-23T05:04:36;93491.88;;;1.84;100.00
10261;BME280;5175;42.606;23.388;2023-02-23T05:07:03;93598.28;;;2.68;100.00
10261;BME280;5175;42.606;23.388;2023-02-23T05:09:31;93596.06;;;2.76;100.00
10261;BME280;5175;42.606;23.388;2023-02-23T05:11:59;93599.31;;;2.95;100.00
10261;BME280;5175;42.606;23.388;2023-02-23T05:14:26;93596.06;;;3.04;100.00
10261;BME280;5175;42.606;23.388;2023-02-23T05:16:53;93588.63;;;3.01;100.00
10261;BME280;5175;42.606;23.388;2023-02-23T05:19:20;93594.75;;;2.90;100.00
10261;BME280;5175;42.606;23.388;2023-02-23T05:21:46;93596.59;;;2.62;100.00
10261;BME280;5175;42.606;23.388;2023-02-23T05:24:14;93604.00;;;2.65;100.00
10261;BME280;5175;42.606;23.388;2023-02-23T05:26:43;93601.06;;;2.61;100.00
10261;BME280;5175;42.606;23.388;2023-02-23T05:29:10;93601.34;;;2.76;100.00
10261;BME280;5175;42.606;23.388;2023-02-23T05:31:37;93596.53;;;2.73;100.00
10261;BME280;5175;42.606;23.388;2023-02-23T05:34:04;93597.34;;;2.74;100.00
10261;BME280;5175;42.606;23.388;2023-02-23T05:36:31;93592.59;;;2.59;100.00
10261;BME280;5175;42.606;23.388;2023-02-23T05:38:58;93613.56;;;2.54;100.00
10261;BME280;5175;42.606;23.388;2023-02-23T05:41:24;93606.03;;;2.46;100.00
10261;BME280;5175;42.606;23.388;2023-02-23T05:43:54;93611.53;;;2.33;100.00
10261;BME280;5175;42.606;23.388;2023-02-23T05:46:22;93603.00;;;2.14;100.00
10261;BME280;5175;42.606;23.388;2023-02-23T05:48:50;93622.09;;;2.10;100.00
10261;BME280;5175;42.606;23.388;2023-02-23T05:51:17;93624.56;;;2.51;100.00
10261;BME280;5175;42.606;23.388;2023-02-23T05:53:44;93627.94;;;2.63;100.00
10261;BME280;5175;42.606;23.388;2023-02-23T05:56:13;93625.22;;;2.58;100.00
10261;BME280;5175;42.606;23.388;2023-02-23T05:58:44;93627.28;;;2.56;100.00
10261;BME280;5175;42.606;23.388;2023-02-23T06:01:12;93635.50;;;2.60;100.00
10261;BME280;5175;42.606;23.388;2023-02-23T06:03:39;93631.28;;;2.59;100.00
10261;BME280;5175;42.606;23.388;2023-02-23T06:06:06;93630.50;;;2.86;100.00
10261;BME280;5175;42.606;23.388;2023-02-23T06:08:33;93654.03;;;3.04;100.00
10261;BME280;5175;42.606;23.388;2023-02-23T06:11:00;93641.22;;;2.96;100.00
10261;BME280;5175;42.606;23.388;2023-02-23T06:13:27;93645.19;;;3.10;100.00
10261;BME280;5175;42.606;23.388;2023-02-23T06:15:53;93653.28;;;3.21;100.00
10261;BME280;5175;42.606;23.388;2023-02-23T06:18:22;93598.28;;;2.96;100.00
10261;BME280;5175;42.606;23.388;2023-02-23T06:20:49;93641.66;;;3.33;100.00
10261;BME280;5175;42.606;23.388;2023-02-23T06:23:16;93656.84;;;3.43;100.00
10261;BME280;5175;42.606;23.388;2023-02-23T06:25:45;93649.19;;;3.58;100.00
10261;BME280;5175;42.606;23.388;2023-02-23T06:28:11;93655.50;;;3.73;100.00
10261;BME280;5175;42.606;23.388;2023-02-23T06:30:40;93658.25;;;3.95;100.00
10261;BME280;5175;42.606;23.388;2023-02-23T06:33:07;93650.78;;;4.09;100.00
10261;BME280;5175;42.606;23.388;2023-02-23T06:35:35;93653.34;;;4.20;100.00
10261;BME280;5175;42.606;23.388;2023-02-23T06:38:02;93656.25;;;4.40;100.00
10261;BME280;5175;42.606;23.388;2023-02-23T06:40:30;93670.50;;;4.39;100.00
10261;BME280;5175;42.606;23.388;2023-02-23T06:42:56;93654.34;;;4.36;100.00
10261;BME280;5175;42.606;23.388;2023-02-23T06:45:24;93659.34;;;4.76;100.00
10261;BME280;5175;42.606;23.388;2023-02-23T06:47:51;93672.31;;;4.99;100.00
10261;BME280;5175;42.606;23.388;2023-02-23T06:50:18;93671.53;;;5.20;100.00
10261;BME280;5175;42.606;23.388;2023-02-23T06:52:46;93649.28;;;4.94;100.00
10261;BME280;5175;42.606;23.388;2023-02-23T06:55:13;93673.19;;;5.04;100.00
10261;BME280;5175;42.606;23.388;2023-02-23T06:57:41;93656.94;;;5.18;99.76
10261;BME280;5175;42.606;23.388;2023-02-23T07:00:09;93678.56;;;5.63;98.03
10261;BME280;5175;42.606;23.388;2023-02-23T07:02:37;93675.44;;;5.93;96.01
10261;BME280;5175;42.606;23.388;2023-02-23T07:05:04;93669.63;;;5.96;95.40
10261;BME280;5175;42.606;23.388;2023-02-23T07:07:30;93679.22;;;6.39;93.82
10261;BME280;5175;42.606;23.388;2023-02-23T07:09:59;93675.16;;;6.68;91.07
10261;BME280;5175;42.606;23.388;2023-02-23T07:12:26;93672.34;;;6.84;88.65
10261;BME280;5175;42.606;23.388;2023-02-23T07:14:53;93685.75;;;7.20;86.43
10261;BME280;5175;42.606;23.388;2023-02-23T07:17:20;93679.72;;;7.34;85.21
10261;BME280;5175;42.606;23.388;2023-02-23T07:19:47;93684.28;;;7.49;84.42
10261;BME280;5175;42.606;23.388;2023-02-23T07:22:13;93691.47;;;7.74;82.89
10261;BME280;5175;42.606;23.388;2023-02-23T07:24:40;93694.69;;;7.86;81.81
10261;BME280;5175;42.606;23.388;2023-02-23T07:27:08;93685.44;;;8.03;80.55
10261;BME280;5175;42.606;23.388;2023-02-23T07:29:35;93674.81;;;8.03;82.12
10261;BME280;5175;42.606;23.388;2023-02-23T07:32:02;93674.56;;;8.35;79.43
10261;BME280;5175;42.606;23.388;2023-02-23T07:34:29;93675.09;;;8.42;77.75
10261;BME280;5175;42.606;23.388;2023-02-23T07:36:56;93664.13;;;8.69;100.00
10261;BME280;5175;42.606;23.388;2023-02-23T07:39:22;93686.75;;;8.71;83.34
10261;BME280;5175;42.606;23.388;2023-02-23T07:41:49;93687.50;;;8.87;77.48
10261;BME280;5175;42.606;23.388;2023-02-23T07:44:18;93685.31;;;9.04;74.89
10261;BME280;5175;42.606;23.388;2023-02-23T07:46:44;93689.56;;;9.15;73.66
10261;BME280;5175;42.606;23.388;2023-02-23T07:49:13;93690.34;;;9.21;73.81
10261;BME280;5175;42.606;23.388;2023-02-23T07:51:40;93688.44;;;9.31;73.10
10261;BME280;5175;42.606;23.388;2023-02-23T07:54:07;93689.72;;;9.44;72.27
10261;BME280;5175;42.606;23.388;2023-02-23T07:56:34;93681.38;;;9.61;71.49
10261;BME280;5175;42.606;23.388;2023-02-23T07:59:01;93688.16;;;9.87;71.04
10261;BME280;5175;42.606;23.388;2023-02-23T08:01:29;93682.78;;;9.92;70.47
10261;BME280;5175;42.606;23.388;2023-02-23T08:03:56;93684.88;;;10.00;71.18
10261;BME280;5175;42.606;23.388;2023-02-23T08:06:23;93684.97;;;10.29;67.36
10261;BME280;5175;42.606;23.388;2023-02-23T08:08:49;93687.59;;;10.34;68.17
10261;BME280;5175;42.606;23.388;2023-02-23T08:11:16;93681.78;;;10.55;67.16
10261;BME280;5175;42.606;23.388;2023-02-23T08:13:43;93682.59;;;10.56;67.36
10261;BME280;5175;42.606;23.388;2023-02-23T08:16:10;93673.69;;;10.71;66.55
10261;BME280;5175;42.606;23.388;2023-02-23T08:18:38;93681.28;;;10.82;65.85
10261;BME280;5175;42.606;23.388;2023-02-23T08:21:05;93663.50;;;11.01;64.22
10261;BME280;5175;42.606;23.388;2023-02-23T08:23:33;93679.41;;;11.11;63.82
10261;BME280;5175;42.606;23.388;2023-02-23T08:26:01;93687.28;;;11.45;62.94
10261;BME280;5175;42.606;23.388;2023-02-23T08:28:29;93690.53;;;11.42;62.69
10261;BME280;5175;42.606;23.388;2023-02-23T08:30:56;93688.47;;;11.58;61.67
10261;BME280;5175;42.606;23.388;2023-02-23T08:33:24;93670.59;;;11.53;60.96
10261;BME280;5175;42.606;23.388;2023-02-23T08:35:52;93687.78;;;11.89;60.70
10261;BME280;5175;42.606;23.388;2023-02-23T08:38:19;93692.81;;;11.96;60.02
10261;BME280;5175;42.606;23.388;2023-02-23T08:40:46;93686.34;;;11.97;60.46
10261;BME280;5175;42.606;23.388;2023-02-23T08:43:13;93689.66;;;11.89;60.30
10261;BME280;5175;42.606;23.388;2023-02-23T08:45:40;93697.06;;;12.34;59.18
10261;BME280;5175;42.606;23.388;2023-02-23T08:48:07;93684.91;;;12.05;59.89
10261;BME280;5175;42.606;23.388;2023-02-23T08:50:34;93699.25;;;12.46;59.00
10261;BME280;5175;42.606;23.388;2023-02-23T08:53:02;93691.00;;;12.61;58.52
10261;BME280;5175;42.606;23.388;2023-02-23T08:55:29;93683.09;;;12.70;57.93
10261;BME280;5175;42.606;23.388;2023-02-23T08:57:57;93696.31;;;12.80;57.95
10261;BME280;5175;42.606;23.388;2023-02-23T09:00:24;93682.03;;;12.84;58.28
10261;BME280;5175;42.606;23.388;2023-02-23T09:02:51;93682.41;;;13.10;56.83
10261;BME280;5175;42.606;23.388;2023-02-23T09:05:18;93693.16;;;13.37;56.33
10261;BME280;5175;42.606;23.388;2023-02-23T09:07:46;93694.66;;;13.30;56.44
10261;BME280;5175;42.606;23.388;2023-02-23T09:10:18;93688.88;;;13.36;55.85
10261;BME280;5175;42.606;23.388;2023-02-23T09:12:49;93687.97;;;13.41;55.22
10261;BME280;5175;42.606;23.388;2023-02-23T09:15:16;93699.50;;;13.41;55.05
10261;BME280;5175;42.606;23.388;2023-02-23T09:17:43;93669.00;;;13.10;56.25
10261;BME280;5175;42.606;23.388;2023-02-23T09:20:12;93686.22;;;13.63;55.28
10261;BME280;5175;42.606;23.388;2023-02-23T09:22:40;93683.88;;;13.98;54.47
10261;BME280;5175;42.606;23.388;2023-02-23T09:25:14;93687.50;;;14.15;53.95
10261;BME280;5175;42.606;23.388;2023-02-23T09:27:43;93687.09;;;14.22;53.41
10261;BME280;5175;42.606;23.388;2023-02-23T09:30:11;93680.63;;;14.23;52.76
10261;BME280;5175;42.606;23.388;2023-02-23T09:32:43;93688.38;;;14.24;52.55
10261;BME280;5175;42.606;23.388;2023-02-23T09:35:10;93689.94;;;14.39;52.60
10261;BME280;5175;42.606;23.388;2023-02-23T09:37:37;93691.66;;;14.21;52.37
10261;BME280;5175;42.606;23.388;2023-02-23T09:40:05;93682.75;;;14.48;52.31
10261;BME280;5175;42.606;23.388;2023-02-23T09:42:41;93683.25;;;14.50;51.94
10261;BME280;5175;42.606;23.388;2023-02-23T09:45:20;93686.41;;;14.74;51.08
10261;BME280;5175;42.606;23.388;2023-02-23T09:48:04;93688.94;;;14.71;50.86
10261;BME280;5175;42.606;23.388;2023-02-23T09:50:33;93691.91;;;14.69;49.96
10261;BME280;5175;42.606;23.388;2023-02-23T09:53:02;93700.56;;;14.88;49.42
10261;BME280;5175;42.606;23.388;2023-02-23T09:55:31;93690.25;;;15.04;49.09
10261;BME280;5175;42.606;23.388;2023-02-23T09:58:04;93679.28;;;14.70;49.38
10261;BME280;5175;42.606;23.388;2023-02-23T10:00:37;93689.63;;;15.07;48.79
10261;BME280;5175;42.606;23.388;2023-02-23T10:03:11;93684.94;;;15.21;48.40
10261;BME280;5175;42.606;23.388;2023-02-23T10:05:44;93675.41;;;15.15;47.80
10261;BME280;5175;42.606;23.388;2023-02-23T10:08:19;93681.56;;;15.07;48.49
10261;BME280;5175;42.606;23.388;2023-02-23T10:10:50;93682.78;;;15.32;47.84
10261;BME280;5175;42.606;23.388;2023-02-23T10:13:30;93671.34;;;15.57;47.88
10261;BME280;5175;42.606;23.388;2023-02-23T10:16:02;93677.00;;;15.86;46.68
10261;BME280;5175;42.606;23.388;2023-02-23T10:18:35;93677.34;;;16.02;46.72
10261;BME280;5175;42.606;23.388;2023-02-23T10:21:05;93677.78;;;15.95;45.92
10261;BME280;5175;42.606;23.388;2023-02-23T10:23:38;93676.97;;;15.78;46.45
10261;BME280;5175;42.606;23.388;2023-02-23T10:26:14;93665.31;;;15.99;46.25
10261;BME280;5175;42.606;23.388;2023-02-23T10:28:43;93663.53;;;15.95;45.62
10261;BME280;5175;42.606;23.388;2023-02-23T10:31:23;93666.09;;;16.08;45.39
10261;BME280;5175;42.606;23.388;2023-02-23T10:33:54;93650.28;;;16.24;45.22
10261;BME280;5175;42.606;23.388;2023-02-23T10:36:30;93658.19;;;16.03;46.44
10261;BME280;5175;42.606;23.388;2023-02-23T10:39:01;93652.97;;;16.24;44.63
10261;BME280;5175;42.606;23.388;2023-02-23T10:41:31;93649.19;;;16.42;44.42
10261;BME280;5175;42.606;23.388;2023-02-23T10:43:59;93653.13;;;16.19;44.51
10261;BME280;5175;42.606;23.388;2023-02-23T10:46:30;93646.19;;;16.52;44.80
10261;BME280;5175;42.606;23.388;2023-02-23T10:49:01;93636.97;;;16.45;46.12
10261;BME280;5175;42.606;23.388;2023-02-23T10:51:32;93631.94;;;16.69;44.94
10261;BME280;5175;42.606;23.388;2023-02-23T10:54:34;93636.81;;;16.75;44.32
10261;BME280;5175;42.606;23.388;2023-02-23T10:57:01;93639.03;;;16.73;43.69
10261;BME280;5175;42.606;23.388;2023-02-23T10:59:30;93634.78;;;16.38;43.86
10261;BME280;5175;42.606;23.388;2023-02-23T11:01:57;93629.19;;;16.52;44.17
10261;BME280;5175;42.606;23.388;2023-02-23T11:04:25;93630.13;;;16.90;43.87
10261;BME280;5175;42.606;23.388;2023-02-23T11:07:06;93619.13;;;17.12;44.33
10261;BME280;5175;42.606;23.388;2023-02-23T11:09:34;93619.00;;;17.00;42.66
10261;BME280;5175;42.606;23.388;2023-02-23T11:12:02;93614.56;;;17.04;43.51
10261;BME280;5175;42.606;23.388;2023-02-23T11:14:33;93618.34;;;17.03;43.25
10261;BME280;5175;42.606;23.388;2023-02-23T11:16:59;93611.56;;;16.97;43.10
10261;BME280;5175;42.606;23.388;2023-02-23T11:19:32;93617.81;;;17.27;44.02
10261;BME280;5175;42.606;23.388;2023-02-23T11:22:02;93588.69;;;17.12;44.08
10261;BME280;5175;42.606;23.388;2023-02-23T11:24:33;93613.63;;;17.38;41.96
10261;BME280;5175;42.606;23.388;2023-02-23T11:27:03;93599.00;;;17.39;42.57
10261;BME280;5175;42.606;23.388;2023-02-23T11:29:35;93604.94;;;17.62;42.16
10261;BME280;5175;42.606;23.388;2023-02-23T11:32:07;93597.66;;;17.62;41.94
10261;BME280;5175;42.606;23.388;2023-02-23T11:34:36;93598.91;;;17.65;42.92
10261;BME280;5175;42.606;23.388;2023-02-23T11:37:06;93603.84;;;17.92;43.54
10261;BME280;5175;42.606;23.388;2023-02-23T11:39:34;93601.41;;;17.70;42.45
10261;BME280;5175;42.606;23.388;2023-02-23T11:42:11;93590.47;;;17.95;43.34
10261;BME280;5175;42.606;23.388;2023-02-23T11:44:41;93592.84;;;18.18;40.83
10261;BME280;5175;42.606;23.388;2023-02-23T11:47:14;93590.59;;;18.20;39.06
10261;BME280;5175;42.606;23.388;2023-02-23T11:49:44;93593.06;;;18.12;39.93
10261;BME280;5175;42.606;23.388;2023-02-23T11:52:14;93599.09;;;18.09;39.33
10261;BME280;5175;42.606;23.388;2023-02-23T11:54:49;93596.25;;;18.06;39.61
10261;BME280;5175;42.606;23.388;2023-02-23T11:57:21;93583.22;;;18.08;40.75
10261;BME280;5175;42.606;23.388;2023-02-23T11:59:50;93585.13;;;17.87;42.09
10261;BME280;5175;42.606;23.388;2023-02-23T12:02:20;93577.88;;;17.49;42.43
10261;BME280;5175;42.606;23.388;2023-02-23T12:04:48;93585.84;;;17.46;42.70
10261;BME280;5175;42.606;23.388;2023-02-23T12:07:23;93584.44;;;17.40;42.62
10261;BME280;5175;42.606;23.388;2023-02-23T12:09:58;93588.06;;;17.06;43.57
10261;BME280;5175;42.606;23.388;2023-02-23T12:12:28;93586.59;;;17.46;44.89
10261;BME280;5175;42.606;23.388;2023-02-23T12:15:04;93586.06;;;17.62;42.75
10261;BME280;5175;42.606;23.388;2023-02-23T12:17:38;93577.44;;;17.77;44.15
10261;BME280;5175;42.606;23.388;2023-02-23T12:20:13;93581.88;;;17.73;44.14
10261;BME280;5175;42.606;23.388;2023-02-23T12:22:45;93582.59;;;17.61;44.53
10261;BME280;5175;42.606;23.388;2023-02-23T12:25:19;93580.25;;;17.80;43.64
10261;BME280;5175;42.606;23.388;2023-02-23T12:27:54;93569.22;;;17.65;43.80
10261;BME280;5175;42.606;23.388;2023-02-23T12:30:27;93572.03;;;17.77;43.95
10261;BME280;5175;42.606;23.388;2023-02-23T12:33:01;93571.03;;;17.61;44.57
10261;BME280;5175;42.606;23.388;2023-02-23T12:35:45;93560.88;;;17.58;43.65
10261;BME280;5175;42.606;23.388;2023-02-23T12:38:20;93573.09;;;17.55;44.06
10261;BME280;5175;42.606;23.388;2023-02-23T12:40:58;93568.84;;;17.75;42.79
10261;BME280;5175;42.606;23.388;2023-02-23T12:43:34;93571.16;;;17.26;43.82
10261;BME280;5175;42.606;23.388;2023-02-23T12:46:08;93566.03;;;17.33;44.68
10261;BME280;5175;42.606;23.388;2023-02-23T12:48:46;93574.38;;;17.49;43.74
10261;BME280;5175;42.606;23.388;2023-02-23T12:51:21;93567.66;;;17.64;42.69
10261;BME280;5175;42.606;23.388;2023-02-23T12:53:50;93570.88;;;17.57;44.17
10261;BME280;5175;42.606;23.388;2023-02-23T12:56:31;93574.84;;;17.51;43.42
10261;BME280;5175;42.606;23.388;2023-02-23T12:59:10;93557.00;;;17.67;43.54
10261;BME280;5175;42.606;23.388;2023-02-23T13:01:43;93561.06;;;17.44;44.28
10261;BME280;5175;42.606;23.388;2023-02-23T13:04:42;93564.56;;;17.53;44.52
10261;BME280;5175;42.606;23.388;2023-02-23T13:07:18;93560.56;;;17.80;43.36
10261;BME280;5175;42.606;23.388;2023-02-23T13:09:54;93558.19;;;17.78;42.62
10261;BME280;5175;42.606;23.388;2023-02-23T13:12:35;93551.63;;;17.88;42.91
10261;BME280;5175;42.606;23.388;2023-02-23T13:15:17;93554.47;;;17.91;43.21
10261;BME280;5175;42.606;23.388;2023-02-23T13:17:54;93558.81;;;17.84;44.67
10261;BME280;5175;42.606;23.388;2023-02-23T13:20:25;93551.75;;;17.91;43.52
10261;BME280;5175;42.606;23.388;2023-02-23T13:22:59;93565.84;;;18.18;41.94
10261;BME280;5175;42.606;23.388;2023-02-23T13:25:32;93553.47;;;18.17;40.74
10261;BME280;5175;42.606;23.388;2023-02-23T13:28:02;93554.13;;;17.93;41.54
10261;BME280;5175;42.606;23.388;2023-02-23T13:30:29;93556.41;;;17.82;43.78
10261;BME280;5175;42.606;23.388;2023-02-23T13:33:03;93554.00;;;18.10;40.94
10261;BME280;5175;42.606;23.388;2023-02-23T13:35:33;93546.81;;;17.93;41.22
10261;BME280;5175;42.606;23.388;2023-02-23T13:38:10;93557.09;;;18.00;41.90